sensor_id;sensor_type;location;lat;lon;timestamp;P1;durP1;ratioP1;P2;durP2;ratioP2
19595;SDS011;9945;46.010;8.946;2023-04-12T00:00:19;3.78;;;3.47;;
19595;SDS011;9945;46.010;8.946;2023-04-12T00:02:46;7.53;;;3.70;;
19595;SDS011;9945;46.010;8.946;2023-04-12T00:05:19;5.82;;;2.97;;
19595;SDS011;9945;46.010;8.946;2023-04-12T00:07:47;5.18;;;3.15;;
19595;SDS011;9945;46.010;8.946;2023-04-12T00:10:17;6.40;;;3.25;;
19595;SDS011;9945;46.010;8.946;2023-04-12T00:12:44;6.88;;;3.17;;
19595;SDS011;9945;46.010;8.946;2023-04-12T00:15:11;4.57;;;3.20;;
19595;SDS011;9945;46.010;8.946;2023-04-12T00:17:38;3.25;;;2.67;;
19595;SDS011;9945;46.010;8.946;2023-04-12T00:20:06;3.25;;;2.95;;
19595;SDS011;9945;46.010;8.946;2023-04-12T00:22:37;3.67;;;3.38;;
19595;SDS011;9945;46.010;8.946;2023-04-12T00:25:05;7.22;;;3.42;;
19595;SDS011;9945;46.010;8.946;2023-04-12T00:27:32;8.30;;;3.38;;
19595;SDS011;9945;46.010;8.946;2023-04-12T00:29:59;4.10;;;3.33;;
19595;SDS011;9945;46.010;8.946;2023-04-12T00:32:27;7.22;;;3.80;;
19595;SDS011;9945;46.010;8.946;2023-04-12T00:34:54;6.72;;;4.15;;
19595;SDS011;9945;46.010;8.946;2023-04-12T00:37:21;3.60;;;3.30;;
19595;SDS011;9945;46.010;8.946;2023-04-12T00:39:49;4.28;;;3.40;;
19595;SDS011;9945;46.010;8.946;2023-04-12T00:42:16;3.17;;;2.90;;
19595;SDS011;9945;46.010;8.946;2023-04-12T00:44:43;6.00;;;3.53;;
19595;SDS011;9945;46.010;8.946;2023-04-12T00:47:10;3.53;;;3.30;;
19595;SDS011;9945;46.010;8.946;2023-04-12T00:49:37;8.23;;;3.17;;
19595;SDS011;9945;46.010;8.946;2023-04-12T00:52:04;3.33;;;3.03;;
19595;SDS011;9945;46.010;8.946;2023-04-12T00:54:34;6.63;;;3.75;;
19595;SDS011;9945;46.010;8.946;2023-04-12T00:57:03;3.30;;;3.00;;
19595;SDS011;9945;46.010;8.946;2023-04-12T00:59:30;6.90;;;3.03;;
19595;SDS011;9945;46.010;8.946;2023-04-12T01:01:57;4.03;;;3.20;;
19595;SDS011;9945;46.010;8.946;2023-04-12T01:04:25;6.00;;;3.40;;
19595;SDS011;9945;46.010;8.946;2023-04-12T01:06:58;4.90;;;3.53;;
19595;SDS011;9945;46.010;8.946;2023-04-12T01:09:33;4.85;;;3.50;;
19595;SDS011;9945;46.010;8.946;2023-04-12T01:12:10;4.75;;;3.47;;
19595;SDS011;9945;46.010;8.946;2023-04-12T01:14:45;3.30;;;2.95;;
19595;SDS011;9945;46.010;8.946;2023-04-12T01:17:19;3.90;;;3.30;;
19595;SDS011;9945;46.010;8.946;2023-04-12T01:19:53;3.28;;;2.97;;
19595;SDS011;9945;46.010;8.946;2023-04-12T01:25:28;6.63;;;3.28;;
19595;SDS011;9945;46.010;8.946;2023-04-12T01:28:05;5.88;;;3.70;;
19595;SDS011;9945;46.010;8.946;2023-04-12T01:30:34;3.80;;;3.45;;
19595;SDS011;9945;46.010;8.946;2023-04-12T01:33:04;4.93;;;3.47;;
19595;SDS011;9945;46.010;8.946;2023-04-12T01:35:32;5.07;;;3.60;;
19595;SDS011;9945;46.010;8.946;2023-04-12T01:37:59;3.45;;;3.15;;
19595;SDS011;9945;46.010;8.946;2023-04-12T01:40:27;3.80;;;3.50;;
19595;SDS011;9945;46.010;8.946;2023-04-12T01:43:06;6.18;;;3.67;;
19595;SDS011;9945;46.010;8.946;2023-04-12T01:45:33;4.72;;;4.22;;
19595;SDS011;9945;46.010;8.946;2023-04-12T01:48:01;5.25;;;3.10;;
19595;SDS011;9945;46.010;8.946;2023-04-12T01:50:33;5.65;;;3.40;;
19595;SDS011;9945;46.010;8.946;2023-04-12T01:53:07;4.95;;;4.00;;
19595;SDS011;9945;46.010;8.946;2023-04-12T01:55:38;3.80;;;3.60;;
19595;SDS011;9945;46.010;8.946;2023-04-12T01:58:11;7.40;;;3.38;;
19595;SDS011;9945;46.010;8.946;2023-04-12T02:00:40;4.20;;;3.80;;
19595;SDS011;9945;46.010;8.946;2023-04-12T02:03:10;4.78;;;3.88;;
19595;SDS011;9945;46.010;8.946;2023-04-12T02:05:37;5.93;;;3.75;;
19595;SDS011;9945;46.010;8.946;2023-04-12T02:08:05;4.15;;;3.33;;
19595;SDS011;9945;46.010;8.946;2023-04-12T02:10:32;3.75;;;3.45;;
19595;SDS011;9945;46.010;8.946;2023-04-12T02:13:01;4.13;;;3.83;;
19595;SDS011;9945;46.010;8.946;2023-04-12T02:15:30;4.40;;;3.95;;
19595;SDS011;9945;46.010;8.946;2023-04-12T02:17:57;3.90;;;3.40;;
19595;SDS011;9945;46.010;8.946;2023-04-12T02:20:24;4.28;;;3.28;;
19595;SDS011;9945;46.010;8.946;2023-04-12T02:22:51;5.45;;;3.38;;
19595;SDS011;9945;46.010;8.946;2023-04-12T02:25:18;6.70;;;3.90;;
19595;SDS011;9945;46.010;8.946;2023-04-12T02:27:45;3.97;;;3.58;;
19595;SDS011;9945;46.010;8.946;2023-04-12T02:30:13;4.15;;;3.67;;
19595;SDS011;9945;46.010;8.946;2023-04-12T02:32:41;5.07;;;3.22;;
19595;SDS011;9945;46.010;8.946;2023-04-12T02:35:12;5.10;;;3.72;;
19595;SDS011;9945;46.010;8.946;2023-04-12T02:37:42;5.30;;;3.70;;
19595;SDS011;9945;46.010;8.946;2023-04-12T02:40:11;4.85;;;3.83;;
19595;SDS011;9945;46.010;8.946;2023-04-12T02:42:39;7.50;;;4.05;;
19595;SDS011;9945;46.010;8.946;2023-04-12T02:45:07;4.28;;;3.88;;
19595;SDS011;9945;46.010;8.946;2023-04-12T02:47:34;7.95;;;4.28;;
19595;SDS011;9945;46.010;8.946;2023-04-12T02:50:03;5.70;;;3.90;;
19595;SDS011;9945;46.010;8.946;2023-04-12T02:52:31;5.80;;;3.85;;
19595;SDS011;9945;46.010;8.946;2023-04-12T02:54:58;6.00;;;4.07;;
19595;SDS011;9945;46.010;8.946;2023-04-12T02:57:25;5.20;;;4.25;;
19595;SDS011;9945;46.010;8.946;2023-04-12T02:59:51;5.22;;;4.03;;
19595;SDS011;9945;46.010;8.946;2023-04-12T03:02:19;6.47;;;4.22;;
19595;SDS011;9945;46.010;8.946;2023-04-12T03:04:46;4.60;;;3.75;;
19595;SDS011;9945;46.010;8.946;2023-04-12T03:07:17;4.53;;;3.83;;
19595;SDS011;9945;46.010;8.946;2023-04-12T03:09:44;5.18;;;3.83;;
19595;SDS011;9945;46.010;8.946;2023-04-12T03:12:13;4.53;;;4.03;;
19595;SDS011;9945;46.010;8.946;2023-04-12T03:14:40;6.30;;;3.80;;
19595;SDS011;9945;46.010;8.946;2023-04-12T03:17:07;4.65;;;4.25;;
19595;SDS011;9945;46.010;8.946;2023-04-12T03:19:35;4.57;;;4.13;;
19595;SDS011;9945;46.010;8.946;2023-04-12T03:22:01;4.07;;;3.78;;
19595;SDS011;9945;46.010;8.946;2023-04-12T03:24:30;5.45;;;4.07;;
19595;SDS011;9945;46.010;8.946;2023-04-12T03:26:59;4.95;;;3.63;;
19595;SDS011;9945;46.010;8.946;2023-04-12T03:29:28;4.40;;;4.00;;
19595;SDS011;9945;46.010;8.946;2023-04-12T03:31:55;5.60;;;3.53;;
19595;SDS011;9945;46.010;8.946;2023-04-12T03:34:23;4.10;;;3.65;;
19595;SDS011;9945;46.010;8.946;2023-04-12T03:36:51;4.93;;;3.95;;
19595;SDS011;9945;46.010;8.946;2023-04-12T03:39:19;4.68;;;4.32;;
19595;SDS011;9945;46.010;8.946;2023-04-12T03:41:47;6.32;;;4.80;;
19595;SDS011;9945;46.010;8.946;2023-04-12T03:44:14;5.60;;;4.32;;
19595;SDS011;9945;46.010;8.946;2023-04-12T03:46:41;5.13;;;4.32;;
19595;SDS011;9945;46.010;8.946;2023-04-12T03:49:08;5.22;;;4.32;;
19595;SDS011;9945;46.010;8.946;2023-04-12T03:51:35;4.72;;;4.25;;
19595;SDS011;9945;46.010;8.946;2023-04-12T03:54:07;6.57;;;4.57;;
19595;SDS011;9945;46.010;8.946;2023-04-12T03:56:34;10.07;;;4.50;;
19595;SDS011;9945;46.010;8.946;2023-04-12T03:59:04;6.30;;;4.22;;
19595;SDS011;9945;46.010;8.946;2023-04-12T04:01:32;7.55;;;4.38;;
19595;SDS011;9945;46.010;8.946;2023-04-12T04:03:59;4.32;;;4.03;;
19595;SDS011;9945;46.010;8.946;2023-04-12T04:06:26;6.60;;;4.80;;
19595;SDS011;9945;46.010;8.946;2023-04-12T04:08:54;7.90;;;4.40;;
19595;SDS011;9945;46.010;8.946;2023-04-12T04:11:24;5.68;;;4.20;;
19595;SDS011;9945;46.010;8.946;2023-04-12T04:13:51;8.25;;;4.90;;
19595;SDS011;9945;46.010;8.946;2023-04-12T04:16:19;5.60;;;4.47;;
19595;SDS011;9945;46.010;8.946;2023-04-12T04:18:46;5.28;;;3.88;;
19595;SDS011;9945;46.010;8.946;2023-04-12T04:21:12;8.32;;;4.05;;
19595;SDS011;9945;46.010;8.946;2023-04-12T04:23:39;6.10;;;4.53;;
19595;SDS011;9945;46.010;8.946;2023-04-12T04:26:09;6.57;;;4.30;;
19595;SDS011;9945;46.010;8.946;2023-04-12T04:28:38;6.93;;;4.63;;
19595;SDS011;9945;46.010;8.946;2023-04-12T04:31:06;5.53;;;4.53;;
19595;SDS011;9945;46.010;8.946;2023-04-12T04:33:36;5.82;;;5.05;;
19595;SDS011;9945;46.010;8.946;2023-04-12T04:36:04;9.95;;;5.80;;
19595;SDS011;9945;46.010;8.946;2023-04-12T04:38:33;6.20;;;5.63;;
19595;SDS011;9945;46.010;8.946;2023-04-12T04:41:00;8.50;;;6.07;;
19595;SDS011;9945;46.010;8.946;2023-04-12T04:43:28;5.78;;;5.38;;
19595;SDS011;9945;46.010;8.946;2023-04-12T04:45:56;6.40;;;5.65;;
19595;SDS011;9945;46.010;8.946;2023-04-12T04:48:23;6.30;;;5.53;;
19595;SDS011;9945;46.010;8.946;2023-04-12T04:50:51;9.57;;;6.05;;
19595;SDS011;9945;46.010;8.946;2023-04-12T04:53:21;7.47;;;6.28;;
19595;SDS011;9945;46.010;8.946;2023-04-12T04:55:48;6.22;;;5.28;;
19595;SDS011;9945;46.010;8.946;2023-04-12T04:58:22;7.22;;;5.35;;
19595;SDS011;9945;46.010;8.946;2023-04-12T05:00:49;6.35;;;5.63;;
19595;SDS011;9945;46.010;8.946;2023-04-12T05:03:20;6.20;;;5.70;;
19595;SDS011;9945;46.010;8.946;2023-04-12T05:05:47;5.80;;;5.20;;
19595;SDS011;9945;46.010;8.946;2023-04-12T05:08:15;7.18;;;5.25;;
19595;SDS011;9945;46.010;8.946;2023-04-12T05:10:42;8.98;;;6.40;;
19595;SDS011;9945;46.010;8.946;2023-04-12T05:13:09;8.18;;;5.70;;
19595;SDS011;9945;46.010;8.946;2023-04-12T05:15:38;7.15;;;6.22;;
19595;SDS011;9945;46.010;8.946;2023-04-12T05:18:05;7.07;;;5.72;;
19595;SDS011;9945;46.010;8.946;2023-04-12T05:20:32;13.60;;;5.78;;
19595;SDS011;9945;46.010;8.946;2023-04-12T05:22:59;5.88;;;5.03;;
19595;SDS011;9945;46.010;8.946;2023-04-12T05:25:27;6.88;;;6.00;;
19595;SDS011;9945;46.010;8.946;2023-04-12T05:27:54;6.13;;;5.53;;
19595;SDS011;9945;46.010;8.946;2023-04-12T05:30:21;6.28;;;5.68;;
19595;SDS011;9945;46.010;8.946;2023-04-12T05:32:48;6.18;;;5.78;;
19595;SDS011;9945;46.010;8.946;2023-04-12T05:35:15;6.28;;;5.68;;
19595;SDS011;9945;46.010;8.946;2023-04-12T05:37:42;7.20;;;6.68;;
19595;SDS011;9945;46.010;8.946;2023-04-12T05:40:09;6.47;;;5.97;;
19595;SDS011;9945;46.010;8.946;2023-04-12T05:42:38;7.03;;;6.43;;
19595;SDS011;9945;46.010;8.946;2023-04-12T05:45:05;6.25;;;5.75;;
19595;SDS011;9945;46.010;8.946;2023-04-12T05:47:32;8.60;;;6.00;;
19595;SDS011;9945;46.010;8.946;2023-04-12T05:50:00;8.75;;;6.25;;
19595;SDS011;9945;46.010;8.946;2023-04-12T05:52:27;7.63;;;6.65;;
19595;SDS011;9945;46.010;8.946;2023-04-12T05:54:54;7.43;;;6.70;;
19595;SDS011;9945;46.010;8.946;2023-04-12T05:57:21;6.80;;;6.20;;
19595;SDS011;9945;46.010;8.946;2023-04-12T05:59:49;8.57;;;6.53;;
19595;SDS011;9945;46.010;8.946;2023-04-12T06:02:16;10.25;;;7.00;;
19595;SDS011;9945;46.010;8.946;2023-04-12T06:04:43;9.02;;;7.60;;
19595;SDS011;9945;46.010;8.946;2023-04-12T06:07:09;7.57;;;6.88;;
19595;SDS011;9945;46.010;8.946;2023-04-12T06:09:37;9.25;;;7.95;;
19595;SDS011;9945;46.010;8.946;2023-04-12T06:12:06;9.90;;;7.75;;
19595;SDS011;9945;46.010;8.946;2023-04-12T06:14:33;10.20;;;8.20;;
19595;SDS011;9945;46.010;8.946;2023-04-12T06:17:01;9.45;;;7.22;;
19595;SDS011;9945;46.010;8.946;2023-04-12T06:19:28;8.38;;;7.40;;
19595;SDS011;9945;46.010;8.946;2023-04-12T06:21:55;9.55;;;7.10;;
19595;SDS011;9945;46.010;8.946;2023-04-12T06:24:22;8.57;;;7.68;;
19595;SDS011;9945;46.010;8.946;2023-04-12T06:26:49;12.52;;;9.25;;
19595;SDS011;9945;46.010;8.946;2023-04-12T06:29:15;13.07;;;9.73;;
19595;SDS011;9945;46.010;8.946;2023-04-12T06:31:42;11.95;;;8.93;;
19595;SDS011;9945;46.010;8.946;2023-04-12T06:34:11;10.45;;;8.68;;
19595;SDS011;9945;46.010;8.946;2023-04-12T06:36:37;10.30;;;9.13;;
19595;SDS011;9945;46.010;8.946;2023-04-12T06:39:05;9.85;;;8.82;;
19595;SDS011;9945;46.010;8.946;2023-04-12T06:41:33;10.13;;;9.30;;
19595;SDS011;9945;46.010;8.946;2023-04-12T06:44:00;11.00;;;9.90;;
19595;SDS011;9945;46.010;8.946;2023-04-12T06:46:27;11.20;;;10.13;;
19595;SDS011;9945;46.010;8.946;2023-04-12T06:48:54;16.77;;;10.38;;
19595;SDS011;9945;46.010;8.946;2023-04-12T06:51:22;12.05;;;10.82;;
19595;SDS011;9945;46.010;8.946;2023-04-12T06:53:49;12.57;;;9.85;;
19595;SDS011;9945;46.010;8.946;2023-04-12T06:56:16;12.35;;;11.15;;
19595;SDS011;9945;46.010;8.946;2023-04-12T06:58:43;12.07;;;10.80;;
19595;SDS011;9945;46.010;8.946;2023-04-12T07:01:10;13.90;;;11.63;;
19595;SDS011;9945;46.010;8.946;2023-04-12T07:03:37;12.43;;;10.93;;
19595;SDS011;9945;46.010;8.946;2023-04-12T07:06:04;13.77;;;10.73;;
19595;SDS011;9945;46.010;8.946;2023-04-12T07:08:33;15.60;;;11.25;;
19595;SDS011;9945;46.010;8.946;2023-04-12T07:11:01;10.50;;;9.45;;
19595;SDS011;9945;46.010;8.946;2023-04-12T07:13:29;14.52;;;10.93;;
19595;SDS011;9945;46.010;8.946;2023-04-12T07:15:56;13.30;;;10.82;;
19595;SDS011;9945;46.010;8.946;2023-04-12T07:18:24;11.65;;;10.55;;
19595;SDS011;9945;46.010;8.946;2023-04-12T07:20:53;14.10;;;11.38;;
19595;SDS011;9945;46.010;8.946;2023-04-12T07:23:21;16.77;;;10.77;;
19595;SDS011;9945;46.010;8.946;2023-04-12T07:25:49;12.95;;;10.38;;
19595;SDS011;9945;46.010;8.946;2023-04-12T07:28:16;14.18;;;11.48;;
19595;SDS011;9945;46.010;8.946;2023-04-12T07:30:45;12.65;;;9.70;;
19595;SDS011;9945;46.010;8.946;2023-04-12T07:33:12;12.20;;;10.93;;
19595;SDS011;9945;46.010;8.946;2023-04-12T07:35:39;11.75;;;10.65;;
19595;SDS011;9945;46.010;8.946;2023-04-12T07:38:05;13.05;;;10.48;;
19595;SDS011;9945;46.010;8.946;2023-04-12T07:40:32;11.00;;;9.85;;
19595;SDS011;9945;46.010;8.946;2023-04-12T07:43:01;12.23;;;10.38;;
19595;SDS011;9945;46.010;8.946;2023-04-12T07:45:28;15.63;;;10.55;;
19595;SDS011;9945;46.010;8.946;2023-04-12T07:47:54;13.02;;;10.38;;
19595;SDS011;9945;46.010;8.946;2023-04-12T07:50:21;17.10;;;10.07;;
19595;SDS011;9945;46.010;8.946;2023-04-12T07:52:48;13.30;;;10.48;;
19595;SDS011;9945;46.010;8.946;2023-04-12T07:55:15;15.82;;;10.30;;
19595;SDS011;9945;46.010;8.946;2023-04-12T07:57:42;12.07;;;9.90;;
19595;SDS011;9945;46.010;8.946;2023-04-12T08:00:11;10.82;;;9.40;;
19595;SDS011;9945;46.010;8.946;2023-04-12T08:02:38;14.45;;;10.65;;
19595;SDS011;9945;46.010;8.946;2023-04-12T08:05:05;15.45;;;10.80;;
19595;SDS011;9945;46.010;8.946;2023-04-12T08:07:33;12.27;;;9.85;;
19595;SDS011;9945;46.010;8.946;2023-04-12T08:10:00;16.23;;;10.05;;
19595;SDS011;9945;46.010;8.946;2023-04-12T08:12:27;12.77;;;9.80;;
19595;SDS011;9945;46.010;8.946;2023-04-12T08:14:54;14.20;;;10.68;;
19595;SDS011;9945;46.010;8.946;2023-04-12T08:17:22;13.23;;;10.73;;
19595;SDS011;9945;46.010;8.946;2023-04-12T08:19:52;12.57;;;10.07;;
19595;SDS011;9945;46.010;8.946;2023-04-12T08:22:19;13.80;;;10.55;;
19595;SDS011;9945;46.010;8.946;2023-04-12T08:24:46;16.60;;;11.45;;
19595;SDS011;9945;46.010;8.946;2023-04-12T08:27:14;11.77;;;10.27;;
19595;SDS011;9945;46.010;8.946;2023-04-12T08:29:41;13.60;;;11.30;;
19595;SDS011;9945;46.010;8.946;2023-04-12T08:32:09;10.70;;;9.60;;
19595;SDS011;9945;46.010;8.946;2023-04-12T08:34:38;11.38;;;10.20;;
19595;SDS011;9945;46.010;8.946;2023-04-12T08:37:05;16.08;;;11.10;;
19595;SDS011;9945;46.010;8.946;2023-04-12T08:39:32;13.90;;;10.10;;
19595;SDS011;9945;46.010;8.946;2023-04-12T08:41:59;12.35;;;10.93;;
19595;SDS011;9945;46.010;8.946;2023-04-12T08:44:32;12.25;;;9.98;;
19595;SDS011;9945;46.010;8.946;2023-04-12T08:47:01;14.40;;;11.05;;
19595;SDS011;9945;46.010;8.946;2023-04-12T08:49:29;20.52;;;10.85;;
19595;SDS011;9945;46.010;8.946;2023-04-12T08:51:58;11.43;;;10.23;;
19595;SDS011;9945;46.010;8.946;2023-04-12T08:54:29;18.42;;;10.30;;
19595;SDS011;9945;46.010;8.946;2023-04-12T08:56:57;13.77;;;11.18;;
19595;SDS011;9945;46.010;8.946;2023-04-12T08:59:26;15.18;;;10.48;;
19595;SDS011;9945;46.010;8.946;2023-04-12T09:01:54;12.80;;;10.77;;
19595;SDS011;9945;46.010;8.946;2023-04-12T09:04:21;18.95;;;12.32;;
19595;SDS011;9945;46.010;8.946;2023-04-12T09:06:48;21.95;;;12.20;;
19595;SDS011;9945;46.010;8.946;2023-04-12T09:09:17;24.92;;;12.15;;
19595;SDS011;9945;46.010;8.946;2023-04-12T09:11:43;14.80;;;11.77;;
19595;SDS011;9945;46.010;8.946;2023-04-12T09:14:20;15.20;;;11.27;;
19595;SDS011;9945;46.010;8.946;2023-04-12T09:16:48;13.93;;;10.50;;
19595;SDS011;9945;46.010;8.946;2023-04-12T09:19:15;16.80;;;10.05;;
19595;SDS011;9945;46.010;8.946;2023-04-12T09:21:55;13.77;;;10.15;;
19595;SDS011;9945;46.010;8.946;2023-04-12T09:24:24;11.30;;;10.18;;
19595;SDS011;9945;46.010;8.946;2023-04-12T09:26:55;14.02;;;10.48;;
19595;SDS011;9945;46.010;8.946;2023-04-12T09:29:27;14.70;;;10.38;;
19595;SDS011;9945;46.010;8.946;2023-04-12T09:31:55;13.80;;;10.90;;
19595;SDS011;9945;46.010;8.946;2023-04-12T09:34:26;18.45;;;11.23;;
19595;SDS011;9945;46.010;8.946;2023-04-12T09:36:52;16.60;;;11.52;;
19595;SDS011;9945;46.010;8.946;2023-04-12T09:39:19;13.07;;;11.35;;
19595;SDS011;9945;46.010;8.946;2023-04-12T09:42:04;13.77;;;12.05;;
19595;SDS011;9945;46.010;8.946;2023-04-12T09:44:32;12.70;;;11.20;;
19595;SDS011;9945;46.010;8.946;2023-04-12T09:46:59;17.63;;;12.52;;
19595;SDS011;9945;46.010;8.946;2023-04-12T09:49:34;19.73;;;12.75;;
19595;SDS011;9945;46.010;8.946;2023-04-12T09:52:03;14.98;;;11.52;;
19595;SDS011;9945;46.010;8.946;2023-04-12T09:54:34;14.45;;;12.07;;
19595;SDS011;9945;46.010;8.946;2023-04-12T09:57:04;14.25;;;11.60;;
19595;SDS011;9945;46.010;8.946;2023-04-12T09:59:34;15.02;;;12.00;;
19595;SDS011;9945;46.010;8.946;2023-04-12T10:02:07;13.98;;;12.30;;
19595;SDS011;9945;46.010;8.946;2023-04-12T10:04:40;15.32;;;12.30;;
19595;SDS011;9945;46.010;8.946;2023-04-12T10:07:07;15.93;;;12.52;;
19595;SDS011;9945;46.010;8.946;2023-04-12T10:09:38;13.75;;;12.07;;
19595;SDS011;9945;46.010;8.946;2023-04-12T10:12:06;15.13;;;13.45;;
19595;SDS011;9945;46.010;8.946;2023-04-12T10:14:33;13.88;;;11.93;;
19595;SDS011;9945;46.010;8.946;2023-04-12T10:17:01;14.45;;;12.80;;
19595;SDS011;9945;46.010;8.946;2023-04-12T10:19:30;14.48;;;12.77;;
19595;SDS011;9945;46.010;8.946;2023-04-12T10:21:58;14.32;;;12.73;;
19595;SDS011;9945;46.010;8.946;2023-04-12T10:24:27;19.77;;;13.27;;
19595;SDS011;9945;46.010;8.946;2023-04-12T10:26:57;17.63;;;12.90;;
19595;SDS011;9945;46.010;8.946;2023-04-12T10:29:27;14.70;;;12.93;;
19595;SDS011;9945;46.010;8.946;2023-04-12T10:31:56;16.77;;;13.63;;
19595;SDS011;9945;46.010;8.946;2023-04-12T10:34:27;16.27;;;12.88;;
19595;SDS011;9945;46.010;8.946;2023-04-12T10:36:54;16.02;;;13.38;;
19595;SDS011;9945;46.010;8.946;2023-04-12T10:39:38;16.27;;;13.35;;
19595;SDS011;9945;46.010;8.946;2023-04-12T10:42:24;14.82;;;13.02;;
19595;SDS011;9945;46.010;8.946;2023-04-12T10:44:52;17.23;;;13.93;;
19595;SDS011;9945;46.010;8.946;2023-04-12T10:50:21;17.75;;;13.98;;
19595;SDS011;9945;46.010;8.946;2023-04-12T10:55:49;15.88;;;13.85;;
19595;SDS011;9945;46.010;8.946;2023-04-12T11:01:24;15.60;;;12.90;;
19595;SDS011;9945;46.010;8.946;2023-04-12T11:09:24;16.50;;;13.55;;
19595;SDS011;9945;46.010;8.946;2023-04-12T11:11:58;19.40;;;14.80;;
19595;SDS011;9945;46.010;8.946;2023-04-12T11:14:42;19.85;;;14.25;;
19595;SDS011;9945;46.010;8.946;2023-04-12T11:17:20;16.10;;;14.13;;
19595;SDS011;9945;46.010;8.946;2023-04-12T11:19:49;15.02;;;13.05;;
19595;SDS011;9945;46.010;8.946;2023-04-12T11:22:18;19.48;;;14.32;;
19595;SDS011;9945;46.010;8.946;2023-04-12T11:24:47;16.00;;;14.25;;
19595;SDS011;9945;46.010;8.946;2023-04-12T11:27:15;16.30;;;13.45;;
19595;SDS011;9945;46.010;8.946;2023-04-12T11:29:46;15.07;;;13.30;;
19595;SDS011;9945;46.010;8.946;2023-04-12T11:32:14;15.45;;;13.77;;
19595;SDS011;9945;46.010;8.946;2023-04-12T11:34:42;17.75;;;13.82;;
19595;SDS011;9945;46.010;8.946;2023-04-12T11:37:10;14.63;;;13.10;;
19595;SDS011;9945;46.010;8.946;2023-04-12T11:39:37;15.20;;;13.52;;
19595;SDS011;9945;46.010;8.946;2023-04-12T11:42:06;16.25;;;13.63;;
19595;SDS011;9945;46.010;8.946;2023-04-12T11:44:38;15.32;;;13.20;;
19595;SDS011;9945;46.010;8.946;2023-04-12T11:47:09;17.10;;;14.63;;
19595;SDS011;9945;46.010;8.946;2023-04-12T11:49:41;17.80;;;13.60;;
19595;SDS011;9945;46.010;8.946;2023-04-12T11:52:09;17.23;;;13.68;;
19595;SDS011;9945;46.010;8.946;2023-04-12T11:54:36;15.85;;;13.02;;
19595;SDS011;9945;46.010;8.946;2023-04-12T11:57:06;17.13;;;14.63;;
19595;SDS011;9945;46.010;8.946;2023-04-12T11:59:37;23.02;;;14.27;;
19595;SDS011;9945;46.010;8.946;2023-04-12T12:02:04;18.13;;;14.05;;
19595;SDS011;9945;46.010;8.946;2023-04-12T12:04:33;19.23;;;14.18;;
19595;SDS011;9945;46.010;8.946;2023-04-12T12:07:00;16.95;;;14.32;;
19595;SDS011;9945;46.010;8.946;2023-04-12T12:09:28;19.52;;;14.98;;
19595;SDS011;9945;46.010;8.946;2023-04-12T12:11:56;17.63;;;14.48;;
19595;SDS011;9945;46.010;8.946;2023-04-12T12:14:23;15.40;;;13.48;;
19595;SDS011;9945;46.010;8.946;2023-04-12T12:16:52;19.30;;;14.25;;
19595;SDS011;9945;46.010;8.946;2023-04-12T12:19:27;19.13;;;15.20;;
19595;SDS011;9945;46.010;8.946;2023-04-12T12:22:08;20.67;;;15.20;;
19595;SDS011;9945;46.010;8.946;2023-04-12T12:24:43;18.90;;;15.68;;
19595;SDS011;9945;46.010;8.946;2023-04-12T12:27:12;21.55;;;15.57;;
19595;SDS011;9945;46.010;8.946;2023-04-12T12:29:39;20.38;;;15.30;;
19595;SDS011;9945;46.010;8.946;2023-04-12T12:32:09;16.65;;;14.68;;
19595;SDS011;9945;46.010;8.946;2023-04-12T12:34:38;17.50;;;13.50;;
19595;SDS011;9945;46.010;8.946;2023-04-12T12:37:08;15.40;;;13.48;;
19595;SDS011;9945;46.010;8.946;2023-04-12T12:39:37;17.52;;;15.15;;
19595;SDS011;9945;46.010;8.946;2023-04-12T12:42:04;15.77;;;13.32;;
19595;SDS011;9945;46.010;8.946;2023-04-12T12:44:31;18.00;;;14.40;;
19595;SDS011;9945;46.010;8.946;2023-04-12T12:46:59;19.70;;;14.93;;
19595;SDS011;9945;46.010;8.946;2023-04-12T12:49:27;16.92;;;13.77;;
19595;SDS011;9945;46.010;8.946;2023-04-12T12:51:54;17.77;;;15.40;;
19595;SDS011;9945;46.010;8.946;2023-04-12T12:54:23;18.83;;;14.95;;
19595;SDS011;9945;46.010;8.946;2023-04-12T12:56:50;19.98;;;14.77;;
19595;SDS011;9945;46.010;8.946;2023-04-12T12:59:17;25.13;;;15.35;;
19595;SDS011;9945;46.010;8.946;2023-04-12T13:01:44;19.65;;;16.30;;
19595;SDS011;9945;46.010;8.946;2023-04-12T13:04:11;17.38;;;14.50;;
19595;SDS011;9945;46.010;8.946;2023-04-12T13:06:38;17.27;;;14.60;;
19595;SDS011;9945;46.010;8.946;2023-04-12T13:09:06;18.63;;;14.98;;
19595;SDS011;9945;46.010;8.946;2023-04-12T13:11:34;18.45;;;14.48;;
19595;SDS011;9945;46.010;8.946;2023-04-12T13:14:01;23.25;;;15.93;;
19595;SDS011;9945;46.010;8.946;2023-04-12T13:16:28;20.20;;;15.57;;
19595;SDS011;9945;46.010;8.946;2023-04-12T13:18:54;16.33;;;14.52;;
19595;SDS011;9945;46.010;8.946;2023-04-12T13:21:21;17.80;;;15.30;;
19595;SDS011;9945;46.010;8.946;2023-04-12T13:23:48;19.92;;;16.13;;
19595;SDS011;9945;46.010;8.946;2023-04-12T13:26:15;17.90;;;16.00;;
19595;SDS011;9945;46.010;8.946;2023-04-12T13:28:43;19.63;;;16.48;;
19595;SDS011;9945;46.010;8.946;2023-04-12T13:31:10;22.63;;;17.27;;
19595;SDS011;9945;46.010;8.946;2023-04-12T13:33:37;20.17;;;16.77;;
19595;SDS011;9945;46.010;8.946;2023-04-12T13:36:04;19.38;;;15.48;;
19595;SDS011;9945;46.010;8.946;2023-04-12T13:38:31;18.77;;;16.77;;
19595;SDS011;9945;46.010;8.946;2023-04-12T13:40:58;22.05;;;17.67;;
19595;SDS011;9945;46.010;8.946;2023-04-12T13:43:25;19.10;;;16.60;;
19595;SDS011;9945;46.010;8.946;2023-04-12T13:45:54;19.17;;;16.58;;
19595;SDS011;9945;46.010;8.946;2023-04-12T13:48:20;24.70;;;17.42;;
19595;SDS011;9945;46.010;8.946;2023-04-12T13:50:48;18.00;;;15.32;;
19595;SDS011;9945;46.010;8.946;2023-04-12T13:53:14;24.33;;;16.58;;
19595;SDS011;9945;46.010;8.946;2023-04-12T13:55:41;18.42;;;15.30;;
19595;SDS011;9945;46.010;8.946;2023-04-12T13:58:10;22.48;;;18.08;;
19595;SDS011;9945;46.010;8.946;2023-04-12T14:00:37;24.77;;;17.38;;
19595;SDS011;9945;46.010;8.946;2023-04-12T14:03:05;22.67;;;16.40;;
19595;SDS011;9945;46.010;8.946;2023-04-12T14:05:32;23.60;;;16.42;;
19595;SDS011;9945;46.010;8.946;2023-04-12T14:07:59;22.30;;;17.05;;
19595;SDS011;9945;46.010;8.946;2023-04-12T14:10:27;19.30;;;17.20;;
19595;SDS011;9945;46.010;8.946;2023-04-12T14:12:54;19.92;;;16.17;;
19595;SDS011;9945;46.010;8.946;2023-04-12T14:15:20;20.40;;;16.58;;
19595;SDS011;9945;46.010;8.946;2023-04-12T14:17:47;23.25;;;17.10;;
19595;SDS011;9945;46.010;8.946;2023-04-12T14:20:16;24.92;;;16.85;;
19595;SDS011;9945;46.010;8.946;2023-04-12T14:22:43;21.15;;;17.40;;
19595;SDS011;9945;46.010;8.946;2023-04-12T14:25:10;19.08;;;17.00;;
19595;SDS011;9945;46.010;8.946;2023-04-12T14:27:37;24.50;;;17.25;;
19595;SDS011;9945;46.010;8.946;2023-04-12T14:30:04;20.85;;;17.10;;
19595;SDS011;9945;46.010;8.946;2023-04-12T14:32:32;20.92;;;17.63;;
19595;SDS011;9945;46.010;8.946;2023-04-12T14:34:59;26.88;;;17.40;;
19595;SDS011;9945;46.010;8.946;2023-04-12T14:37:28;22.95;;;18.83;;
19595;SDS011;9945;46.010;8.946;2023-04-12T14:39:54;22.17;;;18.10;;
19595;SDS011;9945;46.010;8.946;2023-04-12T14:42:21;26.45;;;17.88;;
19595;SDS011;9945;46.010;8.946;2023-04-12T14:44:48;22.48;;;18.20;;
19595;SDS011;9945;46.010;8.946;2023-04-12T14:47:15;21.95;;;17.58;;
19595;SDS011;9945;46.010;8.946;2023-04-12T14:49:42;22.45;;;17.98;;
19595;SDS011;9945;46.010;8.946;2023-04-12T14:52:09;23.88;;;17.70;;
19595;SDS011;9945;46.010;8.946;2023-04-12T14:54:38;22.80;;;17.83;;
19595;SDS011;9945;46.010;8.946;2023-04-12T14:57:04;19.65;;;16.67;;
19595;SDS011;9945;46.010;8.946;2023-04-12T14:59:31;19.85;;;17.67;;
19595;SDS011;9945;46.010;8.946;2023-04-12T15:01:58;23.20;;;17.58;;
19595;SDS011;9945;46.010;8.946;2023-04-12T15:04:25;20.83;;;17.20;;
19595;SDS011;9945;46.010;8.946;2023-04-12T15:06:52;23.75;;;17.02;;
19595;SDS011;9945;46.010;8.946;2023-04-12T15:09:19;23.10;;;16.30;;